sensor_id;sensor_type;location;lat;lon;timestamp;pressure;altitude;pressure_sealevel;temperature;humidity
43155;BME280;34212;51.018;13.586;2023-09-19T00:00:55;97143.69;;;18.68;78.47
43155;BME280;34212;51.018;13.586;2023-09-19T00:05:57;97131.28;;;18.67;78.51
43155;BME280;34212;51.018;13.586;2023-09-19T00:10:59;97143.97;;;18.66;78.38
43155;BME280;34212;51.018;13.586;2023-09-19T00:16:10;97139.88;;;18.64;78.60
43155;BME280;34212;51.018;13.586;2023-09-19T00:21:12;97131.19;;;18.62;78.61
43155;BME280;34212;51.018;13.586;2023-09-19T00:26:13;97126.38;;;18.64;78.92
43155;BME280;34212;51.018;13.586;2023-09-19T00:31:18;97132.84;;;18.63;78.79
43155;BME280;34212;51.018;13.586;2023-09-19T00:36:20;97119.91;;;18.65;78.71
43155;BME280;34212;51.018;13.586;2023-09-19T00:41:21;97123.66;;;18.64;78.82
43155;BME280;34212;51.018;13.586;2023-09-19T00:46:23;97119.56;;;18.61;79.09
43155;BME280;34212;51.018;13.586;2023-09-19T00:51:25;97109.59;;;18.62;78.98
43155;BME280;34212;51.018;13.586;2023-09-19T00:56:28;97120.38;;;18.62;79.08
43155;BME280;34212;51.018;13.586;2023-09-19T01:01:30;97133.34;;;18.60;79.15
43155;BME280;34212;51.018;13.586;2023-09-19T01:06:31;97123.34;;;18.60;79.03
43155;BME280;34212;51.018;13.586;2023-09-19T01:11:38;97133.88;;;18.62;79.45
43155;BME280;34212;51.018;13.586;2023-09-19T01:16:44;97132.00;;;18.62;79.20
43155;BME280;34212;51.018;13.586;2023-09-19T01:22:05;97135.78;;;18.61;79.52
43155;BME280;34212;51.018;13.586;2023-09-19T01:32:18;97138.47;;;18.61;79.55
43155;BME280;34212;51.018;13.586;2023-09-19T01:37:23;97136.59;;;18.62;79.72
43155;BME280;34212;51.018;13.586;2023-09-19T01:47:33;97131.69;;;18.59;80.04
43155;BME280;34212;51.018;13.586;2023-09-19T01:52:39;97130.63;;;18.60;80.30
43155;BME280;34212;51.018;13.586;2023-09-19T02:03:12;97154.94;;;18.60;80.28
43155;BME280;34212;51.018;13.586;2023-09-19T02:08:16;97149.53;;;18.60;80.45
43155;BME280;34212;51.018;13.586;2023-09-19T02:13:19;97148.69;;;18.59;80.41
43155;BME280;34212;51.018;13.586;2023-09-19T02:18:22;97150.59;;;18.59;80.48
43155;BME280;34212;51.018;13.586;2023-09-19T02:23:23;97158.69;;;18.59;80.64
43155;BME280;34212;51.018;13.586;2023-09-19T02:28:25;97157.88;;;18.58;80.84
43155;BME280;34212;51.018;13.586;2023-09-19T02:33:31;97151.66;;;18.58;80.58
43155;BME280;34212;51.018;13.586;2023-09-19T02:38:34;97163.53;;;18.57;80.78
43155;BME280;34212;51.018;13.586;2023-09-19T02:43:35;97153.78;;;18.56;80.92
43155;BME280;34212;51.018;13.586;2023-09-19T02:48:37;97158.13;;;18.57;80.88
43155;BME280;34212;51.018;13.586;2023-09-19T02:53:39;97163.53;;;18.57;80.95
43155;BME280;34212;51.018;13.586;2023-09-19T02:58:41;97166.25;;;18.57;80.79
43155;BME280;34212;51.018;13.586;2023-09-19T03:03:43;97158.38;;;18.55;80.71
43155;BME280;34212;51.018;13.586;2023-09-19T03:08:47;97171.28;;;18.53;80.75
43155;BME280;34212;51.018;13.586;2023-09-19T03:13:54;97183.97;;;18.53;80.72
43155;BME280;34212;51.018;13.586;2023-09-19T03:18:56;97179.88;;;18.50;80.76
43155;BME280;34212;51.018;13.586;2023-09-19T03:23:59;97188.25;;;18.49;80.83
43155;BME280;34212;51.018;13.586;2023-09-19T03:29:03;97195.53;;;18.48;80.69
43155;BME280;34212;51.018;13.586;2023-09-19T03:34:07;97198.44;;;18.46;80.84
43155;BME280;34212;51.018;13.586;2023-09-19T03:39:09;97206.00;;;18.44;80.67
43155;BME280;34212;51.018;13.586;2023-09-19T03:44:12;97194.63;;;18.42;80.83
43155;BME280;34212;51.018;13.586;2023-09-19T03:49:13;97185.94;;;18.40;80.75
43155;BME280;34212;51.018;13.586;2023-09-19T03:54:15;97186.41;;;18.37;80.76
43155;BME280;34212;51.018;13.586;2023-09-19T03:59:18;97190.41;;;18.35;81.09
43155;BME280;34212;51.018;13.586;2023-09-19T04:04:19;97191.75;;;18.32;80.93
43155;BME280;34212;51.018;13.586;2023-09-19T04:09:21;97197.63;;;18.29;80.82
43155;BME280;34212;51.018;13.586;2023-09-19T04:14:22;97198.63;;;18.23;80.73
43155;BME280;34212;51.018;13.586;2023-09-19T04:19:24;97200.97;;;18.19;80.74
43155;BME280;34212;51.018;13.586;2023-09-19T04:24:26;97198.50;;;18.18;80.72
43155;BME280;34212;51.018;13.586;2023-09-19T04:29:27;97198.50;;;18.18;80.77
43155;BME280;34212;51.018;13.586;2023-09-19T04:34:30;97227.38;;;18.17;80.59
43155;BME280;34212;51.018;13.586;2023-09-19T04:39:31;97236.06;;;18.19;80.85
43155;BME280;34212;51.018;13.586;2023-09-19T04:44:33;97235.81;;;18.21;80.76
43155;BME280;34212;51.018;13.586;2023-09-19T04:49:34;97234.50;;;18.23;80.75
43155;BME280;34212;51.018;13.586;2023-09-19T04:54:36;97239.09;;;18.23;80.81
43155;BME280;34212;51.018;13.586;2023-09-19T04:59:37;97238.03;;;18.24;80.82
43155;BME280;34212;51.018;13.586;2023-09-19T05:04:39;97248.81;;;18.24;80.78
43155;BME280;34212;51.018;13.586;2023-09-19T05:09:40;97261.25;;;18.25;80.92
43155;BME280;34212;51.018;13.586;2023-09-19T05:14:43;97273.69;;;18.26;80.92
43155;BME280;34212;51.018;13.586;2023-09-19T05:19:44;97284.50;;;18.26;80.81
43155;BME280;34212;51.018;13.586;2023-09-19T05:24:47;97283.69;;;18.26;80.97
43155;BME280;34212;51.018;13.586;2023-09-19T05:29:49;97283.69;;;18.26;80.78
43155;BME280;34212;51.018;13.586;2023-09-19T05:34:53;97291.50;;;18.27;81.02
43155;BME280;34212;51.018;13.586;2023-09-19T05:39:54;97300.69;;;18.26;81.36
43155;BME280;34212;51.018;13.586;2023-09-19T05:44:56;97316.41;;;18.29;81.01
43155;BME280;34212;51.018;13.586;2023-09-19T05:49:58;97318.84;;;18.31;81.02
43155;BME280;34212;51.018;13.586;2023-09-19T05:55:00;97324.56;;;18.34;80.95
43155;BME280;34212;51.018;13.586;2023-09-19T06:00:02;97329.50;;;18.37;81.14
43155;BME280;34212;51.018;13.586;2023-09-19T06:05:12;97330.31;;;18.38;80.91
43155;BME280;34212;51.018;13.586;2023-09-19T06:10:13;97336.06;;;18.41;81.17
43155;BME280;34212;51.018;13.586;2023-09-19T06:15:16;97340.41;;;18.42;81.21
43155;BME280;34212;51.018;13.586;2023-09-19T06:20:20;97338.50;;;18.43;81.21
43155;BME280;34212;51.018;13.586;2023-09-19T06:25:21;97339.31;;;18.43;81.14
43155;BME280;34212;51.018;13.586;2023-09-19T06:30:24;97360.44;;;18.46;81.00
43155;BME280;34212;51.018;13.586;2023-09-19T06:35:27;97362.91;;;18.48;80.96
43155;BME280;34212;51.018;13.586;2023-09-19T06:40:31;97379.19;;;18.53;81.05
43155;BME280;34212;51.018;13.586;2023-09-19T06:45:32;97390.69;;;18.60;81.04
43155;BME280;34212;51.018;13.586;2023-09-19T06:50:34;97391.94;;;18.69;81.28
43155;BME280;34212;51.018;13.586;2023-09-19T06:55:35;97400.22;;;18.91;81.25
43155;BME280;34212;51.018;13.586;2023-09-19T07:00:37;97405.47;;;19.15;81.19
43155;BME280;34212;51.018;13.586;2023-09-19T07:05:40;97415.81;;;19.35;81.23
43155;BME280;34212;51.018;13.586;2023-09-19T07:10:42;97416.78;;;19.46;80.76
43155;BME280;34212;51.018;13.586;2023-09-19T07:15:50;97418.91;;;19.44;80.30
43155;BME280;34212;51.018;13.586;2023-09-19T07:20:56;97432.19;;;19.45;80.18
43155;BME280;34212;51.018;13.586;2023-09-19T07:26:02;97445.94;;;19.44;80.12
43155;BME280;34212;51.018;13.586;2023-09-19T07:31:06;97448.91;;;19.42;80.07
43155;BME280;34212;51.018;13.586;2023-09-19T07:36:11;97449.06;;;19.35;79.41
43155;BME280;34212;51.018;13.586;2023-09-19T07:41:14;97449.06;;;19.35;79.26
43155;BME280;34212;51.018;13.586;2023-09-19T07:46:16;97468.56;;;19.37;78.47
43155;BME280;34212;51.018;13.586;2023-09-19T07:51:17;97486.91;;;19.35;77.76
43155;BME280;34212;51.018;13.586;2023-09-19T07:56:19;97473.41;;;19.35;77.24
43155;BME280;34212;51.018;13.586;2023-09-19T08:01:21;97471.25;;;19.37;75.82
43155;BME280;34212;51.018;13.586;2023-09-19T08:06:25;97478.38;;;19.44;75.44
43155;BME280;34212;51.018;13.586;2023-09-19T08:11:30;97482.69;;;19.56;75.28
43155;BME280;34212;51.018;13.586;2023-09-19T08:16:32;97486.06;;;19.80;75.66
43155;BME280;34212;51.018;13.586;2023-09-19T08:21:34;97484.00;;;20.04;75.29
43155;BME280;34212;51.018;13.586;2023-09-19T08:26:36;97487.91;;;20.14;74.25
43155;BME280;34212;51.018;13.586;2023-09-19T08:31:39;97495.28;;;20.18;74.34
43155;BME280;34212;51.018;13.586;2023-09-19T08:36:40;97489.38;;;20.21;74.05
43155;BME280;34212;51.018;13.586;2023-09-19T08:41:43;97493.66;;;20.17;73.39
43155;BME280;34212;51.018;13.586;2023-09-19T08:46:44;97502.66;;;20.23;73.23
43155;BME280;34212;51.018;13.586;2023-09-19T08:51:46;97505.50;;;20.33;73.29
43155;BME280;34212;51.018;13.586;2023-09-19T08:56:50;97504.81;;;20.43;73.31
43155;BME280;34212;51.018;13.586;2023-09-19T09:01:51;97505.25;;;20.51;72.72
43155;BME280;34212;51.018;13.586;2023-09-19T09:06:55;97514.16;;;20.69;72.37
43155;BME280;34212;51.018;13.586;2023-09-19T09:11:56;97498.38;;;20.88;72.25
43155;BME280;34212;51.018;13.586;2023-09-19T09:17:00;97507.31;;;21.10;71.42
43155;BME280;34212;51.018;13.586;2023-09-19T09:22:06;97513.81;;;21.09;69.19
43155;BME280;34212;51.018;13.586;2023-09-19T09:27:07;97518.09;;;20.83;68.21
43155;BME280;34212;51.018;13.586;2023-09-19T09:37:20;97526.84;;;20.68;67.97
43155;BME280;34212;51.018;13.586;2023-09-19T09:42:34;97527.00;;;20.79;68.06
43155;BME280;34212;51.018;13.586;2023-09-19T09:47:43;97531.34;;;20.80;67.70
43155;BME280;34212;51.018;13.586;2023-09-19T09:52:51;97545.28;;;20.66;67.54
43155;BME280;34212;51.018;13.586;2023-09-19T09:58:49;97533.06;;;20.47;67.47
43155;BME280;34212;51.018;13.586;2023-09-19T10:03:20;97526.75;;;20.41;67.74
43155;BME280;34212;51.018;13.586;2023-09-19T10:08:23;97527.22;;;20.55;68.52
43155;BME280;34212;51.018;13.586;2023-09-19T10:13:25;97528.31;;;20.76;68.72
43155;BME280;34212;51.018;13.586;2023-09-19T10:18:28;97536.13;;;20.94;68.79
43155;BME280;34212;51.018;13.586;2023-09-19T10:23:31;97538.53;;;21.13;69.30
43155;BME280;34212;51.018;13.586;2023-09-19T10:28:35;97538.94;;;21.27;69.13
43155;BME280;34212;51.018;13.586;2023-09-19T10:33:40;97535.13;;;21.28;68.49
43155;BME280;34212;51.018;13.586;2023-09-19T10:38:43;97532.75;;;21.31;68.14
43155;BME280;34212;51.018;13.586;2023-09-19T10:43:44;97534.28;;;21.44;67.91
43155;BME280;34212;51.018;13.586;2023-09-19T10:48:47;97522.47;;;21.60;67.67
43155;BME280;34212;51.018;13.586;2023-09-19T10:53:52;97521.50;;;21.72;67.10
43155;BME280;34212;51.018;13.586;2023-09-19T10:59:29;97530.00;;;21.85;67.03
43155;BME280;34212;51.018;13.586;2023-09-19T11:09:42;97522.63;;;22.13;65.93
43155;BME280;34212;51.018;13.586;2023-09-19T11:14:43;97532.25;;;22.26;65.40
43155;BME280;34212;51.018;13.586;2023-09-19T11:30:33;97522.66;;;22.55;65.61
43155;BME280;34212;51.018;13.586;2023-09-19T11:46:16;97526.53;;;22.75;65.22
43155;BME280;34212;51.018;13.586;2023-09-19T11:51:23;97529.25;;;22.75;64.21
43155;BME280;34212;51.018;13.586;2023-09-19T11:56:28;97529.78;;;22.72;64.30
43155;BME280;34212;51.018;13.586;2023-09-19T12:01:32;97538.75;;;22.72;63.52
43155;BME280;34212;51.018;13.586;2023-09-19T12:06:36;97538.63;;;22.52;61.40
43155;BME280;34212;51.018;13.586;2023-09-19T12:11:41;97535.03;;;22.36;60.53
43155;BME280;34212;51.018;13.586;2023-09-19T12:16:43;97529.56;;;22.31;60.36
43155;BME280;34212;51.018;13.586;2023-09-19T12:21:57;97539.38;;;22.37;60.47
43155;BME280;34212;51.018;13.586;2023-09-19T12:27:00;97533.72;;;22.49;60.51
43155;BME280;34212;51.018;13.586;2023-09-19T12:32:02;97528.38;;;22.64;61.17
43155;BME280;34212;51.018;13.586;2023-09-19T12:37:11;97529.75;;;22.67;60.72
43155;BME280;34212;51.018;13.586;2023-09-19T12:42:13;97533.56;;;22.71;61.42
43155;BME280;34212;51.018;13.586;2023-09-19T12:47:16;97522.69;;;22.71;61.04
43155;BME280;34212;51.018;13.586;2023-09-19T12:52:19;97521.63;;;22.77;60.92
43155;BME280;34212;51.018;13.586;2023-09-19T12:57:24;97530.16;;;22.91;61.19
43155;BME280;34212;51.018;13.586;2023-09-19T13:02:27;97526.16;;;23.14;62.12
43155;BME280;34212;51.018;13.586;2023-09-19T13:07:39;97531.63;;;23.24;62.02
43155;BME280;34212;51.018;13.586;2023-09-19T13:12:44;97526.13;;;23.03;62.35
43155;BME280;34212;51.018;13.586;2023-09-19T13:17:49;97522.06;;;23.06;62.86
43155;BME280;34212;51.018;13.586;2023-09-19T13:22:51;97521.25;;;23.11;62.78
43155;BME280;34212;51.018;13.586;2023-09-19T13:27:56;97523.19;;;23.15;63.17
43155;BME280;34212;51.018;13.586;2023-09-19T13:33:08;97513.41;;;23.24;62.09
43155;BME280;34212;51.018;13.586;2023-09-19T13:38:11;97522.16;;;23.37;62.95
43155;BME280;34212;51.018;13.586;2023-09-19T13:43:13;97516.19;;;23.40;62.38
43155;BME280;34212;51.018;13.586;2023-09-19T13:48:14;97513.16;;;23.31;62.24
43155;BME280;34212;51.018;13.586;2023-09-19T13:53:16;97517.19;;;23.13;61.33
43155;BME280;34212;51.018;13.586;2023-09-19T13:58:18;97522.03;;;23.01;61.22
43155;BME280;34212;51.018;13.586;2023-09-19T14:03:19;97520.09;;;22.91;61.22
43155;BME280;34212;51.018;13.586;2023-09-19T14:08:22;97523.34;;;22.93;61.57
43155;BME280;34212;51.018;13.586;2023-09-19T14:13:26;97515.81;;;23.11;61.78
43155;BME280;34212;51.018;13.586;2023-09-19T14:18:27;97512.03;;;23.27;61.12
43155;BME280;34212;51.018;13.586;2023-09-19T14:23:29;97514.78;;;23.32;60.76
43155;BME280;34212;51.018;13.586;2023-09-19T14:28:35;97504.13;;;23.20;60.46
43155;BME280;34212;51.018;13.586;2023-09-19T14:33:37;97503.88;;;23.17;61.15
43155;BME280;34212;51.018;13.586;2023-09-19T14:38:39;97501.16;;;23.17;59.80
43155;BME280;34212;51.018;13.586;2023-09-19T14:43:41;97508.22;;;23.23;59.62
43155;BME280;34212;51.018;13.586;2023-09-19T14:48:42;97499.53;;;23.16;59.89
43155;BME280;34212;51.018;13.586;2023-09-19T14:53:45;97491.06;;;23.07;60.39
43155;BME280;34212;51.018;13.586;2023-09-19T14:58:50;97501.91;;;23.02;59.59
43155;BME280;34212;51.018;13.586;2023-09-19T15:03:52;97496.97;;;22.83;58.72
43155;BME280;34212;51.018;13.586;2023-09-19T15:08:56;97498.56;;;22.79;58.27
43155;BME280;34212;51.018;13.586;2023-09-19T15:13:58;97494.47;;;22.77;58.62
43155;BME280;34212;51.018;13.586;2023-09-19T15:19:00;97494.78;;;22.86;58.78
43155;BME280;34212;51.018;13.586;2023-09-19T15:24:01;97494.78;;;22.86;58.62
43155;BME280;34212;51.018;13.586;2023-09-19T15:29:04;97497.19;;;22.77;58.37
43155;BME280;34212;51.018;13.586;2023-09-19T15:34:06;97493.34;;;22.68;58.02
43155;BME280;34212;51.018;13.586;2023-09-19T15:39:08;97484.41;;;22.72;58.71
43155;BME280;34212;51.018;13.586;2023-09-19T15:44:14;97489.28;;;22.65;58.76
43155;BME280;34212;51.018;13.586;2023-09-19T15:49:16;97494.38;;;22.56;58.92
43155;BME280;34212;51.018;13.586;2023-09-19T15:54:18;97493.00;;;22.54;59.24
43155;BME280;34212;51.018;13.586;2023-09-19T15:59:19;97494.91;;;22.53;59.29
43155;BME280;34212;51.018;13.586;2023-09-19T16:04:21;97489.97;;;22.45;59.29
43155;BME280;34212;51.018;13.586;2023-09-19T16:09:23;97488.31;;;22.39;59.55
43155;BME280;34212;51.018;13.586;2023-09-19T16:14:25;97494.25;;;22.31;59.78
43155;BME280;34212;51.018;13.586;2023-09-19T16:19:28;97496.34;;;22.19;59.61
43155;BME280;34212;51.018;13.586;2023-09-19T16:24:30;97499.53;;;22.10;59.92
43155;BME280;34212;51.018;13.586;2023-09-19T16:29:31;97503.22;;;21.99;59.89
43155;BME280;34212;51.018;13.586;2023-09-19T16:34:32;97497.75;;;21.89;59.46
43155;BME280;34212;51.018;13.586;2023-09-19T16:39:34;97505.25;;;21.77;59.73
43155;BME280;34212;51.018;13.586;2023-09-19T16:44:35;97505.09;;;21.61;60.09
43155;BME280;34212;51.018;13.586;2023-09-19T16:49:37;97512.06;;;21.47;60.06
43155;BME280;34212;51.018;13.586;2023-09-19T16:54:38;97513.03;;;21.36;60.23
43155;BME280;34212;51.018;13.586;2023-09-19T16:59:40;97520.97;;;21.20;60.40
43155;BME280;34212;51.018;13.586;2023-09-19T17:04:42;97517.03;;;21.06;60.12
43155;BME280;34212;51.018;13.586;2023-09-19T17:09:44;97521.47;;;20.90;59.72
43155;BME280;34212;51.018;13.586;2023-09-19T17:14:45;97518.28;;;20.76;59.57
43155;BME280;34212;51.018;13.586;2023-09-19T17:19:46;97521.63;;;20.62;58.81
43155;BME280;34212;51.018;13.586;2023-09-19T17:24:49;97528.69;;;20.46;58.45
43155;BME280;34212;51.018;13.586;2023-09-19T17:29:51;97529.38;;;20.36;57.95
43155;BME280;34212;51.018;13.586;2023-09-19T17:34:52;97533.59;;;20.27;57.67
43155;BME280;34212;51.018;13.586;2023-09-19T17:39:55;97542.38;;;20.17;58.10
43155;BME280;34212;51.018;13.586;2023-09-19T17:44:57;97541.16;;;20.08;58.45
43155;BME280;34212;51.018;13.586;2023-09-19T17:49:59;97555.59;;;19.97;58.75
43155;BME280;34212;51.018;13.586;2023-09-19T17:55:05;97559.22;;;19.86;59.16
43155;BME280;34212;51.018;13.586;2023-09-19T18:00:07;97553.88;;;19.74;59.23
43155;BME280;34212;51.018;13.586;2023-09-19T18:05:11;97570.75;;;19.64;59.55
43155;BME280;34212;51.018;13.586;2023-09-19T18:10:18;97583.81;;;19.55;59.81
43155;BME280;34212;51.018;13.586;2023-09-19T18:15:19;97579.84;;;19.46;59.78
43155;BME280;34212;51.018;13.586;2023-09-19T18:20:20;97583.78;;;19.38;60.08
43155;BME280;34212;51.018;13.586;2023-09-19T18:25:23;97595.78;;;19.31;60.10
43155;BME280;34212;51.018;13.586;2023-09-19T18:30:25;97602.41;;;19.23;60.26
43155;BME280;34212;51.018;13.586;2023-09-19T18:35:27;97602.53;;;19.17;60.44
43155;BME280;34212;51.018;13.586;2023-09-19T18:40:31;97609.72;;;19.11;60.17
43155;BME280;34212;51.018;13.586;2023-09-19T18:45:32;97610.91;;;19.03;60.38
43155;BME280;34212;51.018;13.586;2023-09-19T18:50:42;97615.41;;;18.98;60.30
43155;BME280;34212;51.018;13.586;2023-09-19T18:55:43;97615.53;;;18.91;60.16
43155;BME280;34212;51.018;13.586;2023-09-19T19:00:45;97617.88;;;18.87;60.42
43155;BME280;34212;51.018;13.586;2023-09-19T19:05:47;97618.59;;;18.83;60.37
43155;BME280;34212;51.018;13.586;2023-09-19T19:10:49;97623.88;;;18.78;60.53
43155;BME280;34212;51.018;13.586;2023-09-19T19:15:51;97621.53;;;18.69;60.85
43155;BME280;34212;51.018;13.586;2023-09-19T19:20:58;97635.38;;;18.61;60.72
43155;BME280;34212;51.018;13.586;2023-09-19T19:26:03;97633.88;;;18.54;60.75
43155;BME280;34212;51.018;13.586;2023-09-19T19:31:05;97635.28;;;18.44;60.74
43155;BME280;34212;51.018;13.586;2023-09-19T19:36:10;97636.66;;;18.35;60.82
43155;BME280;34212;51.018;13.586;2023-09-19T19:41:14;97631.50;;;18.34;60.87
43155;BME280;34212;51.018;13.586;2023-09-19T19:46:16;97631.84;;;18.37;60.99
43155;BME280;34212;51.018;13.586;2023-09-19T19:51:17;97647.00;;;18.38;61.04
43155;BME280;34212;51.018;13.586;2023-09-19T19:56:19;97636.88;;;18.34;60.76
43155;BME280;34212;51.018;13.586;2023-09-19T20:01:20;97636.41;;;18.25;61.02
43155;BME280;34212;51.018;13.586;2023-09-19T20:06:24;97632.53;;;18.21;61.01
43155;BME280;34212;51.018;13.586;2023-09-19T20:11:27;97622.66;;;18.15;61.12
43155;BME280;34212;51.018;13.586;2023-09-19T20:16:31;97620.19;;;18.02;61.23
43155;BME280;34212;51.018;13.586;2023-09-19T20:21:33;97635.53;;;17.89;61.30
43155;BME280;34212;51.018;13.586;2023-09-19T20:26:37;97633.63;;;17.78;61.56
43155;BME280;34212;51.018;13.586;2023-09-19T20:31:39;97630.78;;;17.73;61.53
43155;BME280;34212;51.018;13.586;2023-09-19T20:36:40;97627.31;;;17.66;61.40
43155;BME280;34212;51.018;13.586;2023-09-19T20:41:42;97627.22;;;17.61;61.42
43155;BME280;34212;51.018;13.586;2023-09-19T20:46:43;97624.97;;;17.58;61.35
43155;BME280;34212;51.018;13.586;2023-09-19T20:51:46;97624.72;;;17.59;61.48
43155;BME280;34212;51.018;13.586;2023-09-19T20:56:47;97621.81;;;17.61;61.49
43155;BME280;34212;51.018;13.586;2023-09-19T21:01:50;97610.78;;;17.62;61.50
43155;BME280;34212;51.018;13.586;2023-09-19T21:06:55;97612.22;;;17.65;61.46
43155;BME280;34212;51.018;13.586;2023-09-19T21:11:57;97618.22;;;17.67;61.67
43155;BME280;34212;51.018;13.586;2023-09-19T21:16:58;97616.31;;;17.67;61.30
43155;BME280;34212;51.018;13.586;2023-09-19T21:22:00;97617.16;;;17.68;61.52
43155;BME280;34212;51.018;13.586;2023-09-19T21:27:04;97613.84;;;17.66;61.65
43155;BME280;34212;51.018;13.586;2023-09-19T21:32:06;97618.06;;;17.62;61.75
43155;BME280;34212;51.018;13.586;2023-09-19T21:37:09;97613.13;;;17.59;61.91
43155;BME280;34212;51.018;13.586;2023-09-19T21:42:15;97611.59;;;17.51;61.95
43155;BME280;34212;51.018;13.586;2023-09-19T21:47:16;97593.38;;;17.46;62.08
43155;BME280;34212;51.018;13.586;2023-09-19T21:52:17;97600.88;;;17.44;62.12
43155;BME280;34212;51.018;13.586;2023-09-19T21:57:19;97598.78;;;17.46;62.01
43155;BME280;34212;51.018;13.586;2023-09-19T22:02:20;97591.28;;;17.48;62.13
43155;BME280;34212;51.018;13.586;2023-09-19T22:07:22;97583.78;;;17.50;62.05
43155;BME280;34212;51.018;13.586;2023-09-19T22:12:24;97587.69;;;17.54;61.88
43155;BME280;34212;51.018;13.586;2023-09-19T22:17:26;97584.53;;;17.58;62.00
43155;BME280;34212;51.018;13.586;2023-09-19T22:22:28;97578.69;;;17.61;61.90
43155;BME280;34212;51.018;13.586;2023-09-19T22:27:30;97569.31;;;17.63;61.89
43155;BME280;34212;51.018;13.586;2023-09-19T22:32:32;97574.00;;;17.68;61.85
43155;BME280;34212;51.018;13.586;2023-09-19T22:37:35;97576.44;;;17.69;61.87
43155;BME280;34212;51.018;13.586;2023-09-19T22:42:38;97569.78;;;17.72;61.88
43155;BME280;34212;51.018;13.586;2023-09-19T22:47:42;97577.66;;;17.73;61.96
43155;BME280;34212;51.018;13.586;2023-09-19T22:52:45;97581.16;;;17.74;62.14
43155;BME280;34212;51.018;13.586;2023-09-19T22:57:54;97582.78;;;17.75;62.04
43155;BME280;34212;51.018;13.586;2023-09-19T23:02:56;97579.28;;;17.74;62.02
43155;BME280;34212;51.018;13.586;2023-09-19T23:07:59;97577.41;;;17.75;62.10
43155;BME280;34212;51.018;13.586;2023-09-19T23:13:01;97577.41;;;17.75;62.12
43155;BME280;34212;51.018;13.586;2023-09-19T23:18:02;97586.13;;;17.77;62.11
43155;BME280;34212;51.018;13.586;2023-09-19T23:23:05;97581.75;;;17.76;62.18
43155;BME280;34212;51.018;13.586;2023-09-19T23:28:15;97586.13;;;17.77;62.29
43155;BME280;34212;51.018;13.586;2023-09-19T23:33:17;97587.16;;;17.76;62.30
43155;BME280;34212;51.018;13.586;2023-09-19T23:38:19;97581.56;;;17.77;62.17
43155;BME280;34212;51.018;13.586;2023-09-19T23:43:20;97586.72;;;17.79;62.31
43155;BME280;34212;51.018;13.586;2023-09-19T23:48:23;97588.38;;;17.80;62.14
43155;BME280;34212;51.018;13.586;2023-09-19T23:53:24;97588.97;;;17.82;62.16
43155;BME280;34212;51.018;13.586;2023-09-19T23:58:26;97588.72;;;17.84;62.19
